Time;durP1;ratioP1;P1;durP2;ratioP2;P2;SDS_P1;SDS_P2;PMS_P1;PMS_P2;Temp;Humidity;BMP_temperature;BMP_pressure;BME280_temperature;BME280_humidity;BME280_pressure;Samples;Min_cycle;Max_cycle;Signal;HPM_P1;HPM_P2
2022/08/05 00:01:19;;;;;;;4.45;3.97;;;;;;;;;;5033305;28;20210;-86
2022/08/05 00:03:48;;;;;;;4.60;4.00;;;;;;;;;;5033306;28;20198;-86
2022/08/05 00:06:15;;;;;;;4.13;3.83;;;;;;;;;;5049613;28;20300;-86
2022/08/05 00:08:43;;;;;;;4.30;4.00;;;;;;;;;;5058300;22;20226;-89
2022/08/05 00:11:11;;;;;;;4.57;4.00;;;;;;;;;;5033770;28;20264;-89
2022/08/05 00:13:39;;;;;;;4.13;3.50;;;;;;;;;;5032673;28;20213;-89
2022/08/05 00:16:07;;;;;;;4.22;3.92;;;;;;;;;;5033936;28;20201;-89
2022/08/05 00:18:34;;;;;;;4.30;3.95;;;;;;;;;;5032723;28;20316;-87
2022/08/05 00:21:03;;;;;;;4.45;4.05;;;;;;;;;;5034176;28;20259;-88
2022/08/05 00:23:31;;;;;;;3.95;3.65;;;;;;;;;;5034003;28;20210;-87
2022/08/05 00:25:58;;;;;;;4.50;4.10;;;;;;;;;;5033780;28;20312;-88
2022/08/05 00:28:26;;;;;;;4.45;4.00;;;;;;;;;;5028510;28;20226;-88
2022/08/05 00:30:53;;;;;;;4.40;4.00;;;;;;;;;;5034181;28;20206;-88
2022/08/05 00:33:20;;;;;;;4.10;3.80;;;;;;;;;;5030195;28;20233;-87
2022/08/05 00:35:49;;;;;;;4.03;3.72;;;;;;;;;;5034104;28;20212;-87
2022/08/05 00:38:18;;;;;;;4.07;3.78;;;;;;;;;;5030792;28;20221;-87
2022/08/05 00:40:49;;;;;;;4.38;3.97;;;;;;;;;;5033788;28;20217;-87
2022/08/05 00:43:19;;;;;;;4.15;3.70;;;;;;;;;;5033432;28;20252;-87
2022/08/05 00:45:47;;;;;;;4.25;3.85;;;;;;;;;;5033584;28;20226;-87
2022/08/05 00:48:15;;;;;;;4.50;4.10;;;;;;;;;;5032894;28;20217;-87
2022/08/05 00:50:43;;;;;;;4.15;3.80;;;;;;;;;;5033712;28;20264;-88
2022/08/05 00:53:11;;;;;;;4.05;3.75;;;;;;;;;;5031010;28;20202;-87
2022/08/05 00:55:40;;;;;;;4.32;4.03;;;;;;;;;;5033358;28;20256;-88
2022/08/05 00:58:07;;;;;;;3.72;3.42;;;;;;;;;;5028187;28;20221;-87
2022/08/05 01:00:34;;;;;;;4.35;3.80;;;;;;;;;;5033423;28;20220;-87
2022/08/05 01:03:02;;;;;;;3.95;3.40;;;;;;;;;;5033111;28;20206;-87
2022/08/05 01:05:32;;;;;;;3.33;3.13;;;;;;;;;;5032749;28;20225;-87
2022/08/05 01:07:59;;;;;;;3.80;3.50;;;;;;;;;;5027028;28;20221;-87
2022/08/05 01:10:29;;;;;;;3.83;3.17;;;;;;;;;;5033156;28;20222;-87
2022/08/05 01:13:02;;;;;;;3.75;3.20;;;;;;;;;;5032605;28;20212;-87
2022/08/05 01:15:31;;;;;;;4.07;3.60;;;;;;;;;;5032898;28;20557;-87
2022/08/05 01:18:01;;;;;;;3.92;3.45;;;;;;;;;;5032532;28;20245;-87
2022/08/05 01:20:32;;;;;;;3.22;2.90;;;;;;;;;;5032908;28;20256;-88
2022/08/05 01:23:04;;;;;;;3.45;3.15;;;;;;;;;;5030550;28;20198;-87
2022/08/05 01:25:45;;;;;;;4.00;3.13;;;;;;;;;;5032852;28;20229;-87
2022/08/05 01:28:32;;;;;;;3.33;3.03;;;;;;;;;;5028360;28;20309;-87
2022/08/05 01:31:01;;;;;;;4.93;3.38;;;;;;;;;;5031440;28;20256;-87
2022/08/05 01:33:36;;;;;;;4.38;2.90;;;;;;;;;;5032300;28;20281;-88
2022/08/05 01:36:07;;;;;;;3.00;2.80;;;;;;;;;;5032764;28;20274;-88
2022/08/05 01:38:35;;;;;;;3.72;3.28;;;;;;;;;;5026984;28;20230;-87
2022/08/05 01:41:04;;;;;;;3.45;2.70;;;;;;;;;;5032680;28;20209;-88
2022/08/05 01:43:34;;;;;;;3.20;2.90;;;;;;;;;;5032073;28;20260;-88
2022/08/05 01:46:02;;;;;;;3.83;3.40;;;;;;;;;;5032639;28;20257;-88
2022/08/05 01:48:32;;;;;;;3.28;2.97;;;;;;;;;;5031506;28;20703;-87
2022/08/05 01:50:59;;;;;;;3.85;2.92;;;;;;;;;;5032464;28;20206;-88
2022/08/05 01:53:27;;;;;;;3.33;3.03;;;;;;;;;;5032374;28;20213;-87
2022/08/05 01:55:56;;;;;;;3.05;2.70;;;;;;;;;;5032345;28;20229;-88
2022/08/05 01:58:26;;;;;;;2.85;2.63;;;;;;;;;;5030851;28;20234;-88
2022/08/05 02:00:57;;;;;;;3.42;3.13;;;;;;;;;;5025832;28;20213;-88
2022/08/05 02:03:26;;;;;;;3.40;2.85;;;;;;;;;;5026034;28;20206;-88
2022/08/05 02:05:54;;;;;;;4.13;3.00;;;;;;;;;;5032125;28;20291;-88
2022/08/05 02:08:21;;;;;;;3.17;2.50;;;;;;;;;;5026406;28;20288;-88
2022/08/05 02:10:51;;;;;;;3.90;2.72;;;;;;;;;;5028574;28;20198;-88
2022/08/05 02:13:21;;;;;;;3.95;2.90;;;;;;;;;;5032208;28;20202;-88
2022/08/05 02:15:51;;;;;;;3.25;2.50;;;;;;;;;;5030563;28;20249;-88
2022/08/05 02:18:23;;;;;;;3.35;3.05;;;;;;;;;;5031687;28;20272;-86
2022/08/05 02:20:54;;;;;;;4.30;2.80;;;;;;;;;;5031966;28;20304;-88
2022/08/05 02:23:24;;;;;;;3.50;2.80;;;;;;;;;;5031307;28;20206;-87
2022/08/05 02:25:52;;;;;;;3.28;2.92;;;;;;;;;;5031841;28;20283;-88
2022/08/05 02:28:23;;;;;;;5.50;2.97;;;;;;;;;;5029872;28;20226;-88
2022/08/05 02:30:54;;;;;;;2.72;2.53;;;;;;;;;;5032094;28;20237;-87
2022/08/05 02:33:23;;;;;;;4.55;3.00;;;;;;;;;;5032185;28;20214;-87
2022/08/05 02:35:51;;;;;;;3.08;2.80;;;;;;;;;;5031828;28;20202;-88
2022/08/05 02:38:20;;;;;;;3.28;2.97;;;;;;;;;;5029273;28;20229;-88
2022/08/05 02:40:47;;;;;;;2.88;2.70;;;;;;;;;;5031617;28;20288;-87
2022/08/05 02:43:15;;;;;;;3.60;2.97;;;;;;;;;;5035114;28;20212;-88
2022/08/05 02:45:43;;;;;;;4.68;3.22;;;;;;;;;;5035721;28;20217;-87
2022/08/05 02:48:11;;;;;;;3.65;3.08;;;;;;;;;;5035588;28;20229;-87
2022/08/05 02:50:42;;;;;;;2.90;2.70;;;;;;;;;;5032968;28;20209;-88
2022/08/05 02:53:09;;;;;;;3.28;2.97;;;;;;;;;;5035607;28;20202;-88
2022/08/05 02:55:36;;;;;;;4.85;3.30;;;;;;;;;;5035730;28;20206;-88
2022/08/05 02:58:04;;;;;;;3.88;2.83;;;;;;;;;;5026265;28;20304;-87
2022/08/05 03:00:31;;;;;;;3.63;3.08;;;;;;;;;;5035533;28;20287;-88
2022/08/05 03:02:59;;;;;;;3.92;2.90;;;;;;;;;;5035434;28;20205;-88
2022/08/05 03:05:27;;;;;;;4.80;3.03;;;;;;;;;;5035207;28;20259;-88
2022/08/05 03:07:55;;;;;;;3.20;3.00;;;;;;;;;;5034035;28;20225;-88
2022/08/05 03:10:24;;;;;;;3.30;3.00;;;;;;;;;;5035117;28;20206;-87
2022/08/05 03:12:51;;;;;;;3.30;2.88;;;;;;;;;;5034786;28;20760;-88
2022/08/05 03:15:19;;;;;;;4.20;2.75;;;;;;;;;;5035701;28;20202;-87
2022/08/05 03:17:49;;;;;;;3.85;3.00;;;;;;;;;;5029820;28;20201;-87
2022/08/05 03:20:16;;;;;;;3.35;3.15;;;;;;;;;;5034745;28;20205;-88
2022/08/05 03:22:43;;;;;;;3.10;2.90;;;;;;;;;;5035049;28;20194;-88
2022/08/05 03:25:15;;;;;;;5.63;2.85;;;;;;;;;;5035062;28;20283;-87
2022/08/05 03:27:42;;;;;;;5.35;2.92;;;;;;;;;;5034700;28;20252;-87
2022/08/05 03:30:13;;;;;;;3.25;2.95;;;;;;;;;;5035379;28;20198;-88
2022/08/05 03:32:40;;;;;;;3.22;2.85;;;;;;;;;;5034685;28;20210;-87
2022/08/05 03:35:10;;;;;;;3.20;2.90;;;;;;;;;;5034808;28;20202;-87
2022/08/05 03:37:37;;;;;;;3.50;3.20;;;;;;;;;;5034639;28;20307;-88
2022/08/05 03:40:07;;;;;;;4.30;3.00;;;;;;;;;;5031187;28;20207;-87
2022/08/05 03:42:36;;;;;;;3.00;2.80;;;;;;;;;;5033507;28;20217;-87
2022/08/05 03:45:03;;;;;;;3.83;3.20;;;;;;;;;;5034639;28;20221;-87
2022/08/05 03:47:31;;;;;;;5.05;3.05;;;;;;;;;;5034574;28;20232;-88
2022/08/05 03:49:58;;;;;;;3.08;2.88;;;;;;;;;;5032697;28;20209;-88
2022/08/05 03:52:28;;;;;;;5.03;3.13;;;;;;;;;;5026664;28;20226;-87
2022/08/05 03:54:59;;;;;;;4.25;2.78;;;;;;;;;;5027401;28;20232;-87
2022/08/05 03:57:28;;;;;;;4.82;3.30;;;;;;;;;;5029626;28;20682;-87
2022/08/05 03:59:58;;;;;;;3.30;3.00;;;;;;;;;;5050940;28;20251;-87
2022/08/05 04:02:27;;;;;;;4.55;3.08;;;;;;;;;;5058873;28;20218;-88
2022/08/05 04:04:55;;;;;;;3.50;3.20;;;;;;;;;;5053270;28;20193;-88
2022/08/05 04:07:23;;;;;;;3.70;3.40;;;;;;;;;;5035405;28;20213;-88
2022/08/05 04:09:50;;;;;;;4.10;3.00;;;;;;;;;;5034543;28;20222;-87
2022/08/05 04:12:17;;;;;;;3.28;3.00;;;;;;;;;;5026745;28;20233;-86
2022/08/05 04:14:45;;;;;;;3.65;3.33;;;;;;;;;;5033957;28;20206;-87
2022/08/05 04:17:14;;;;;;;3.40;3.10;;;;;;;;;;5034115;28;20206;-87
2022/08/05 04:19:44;;;;;;;4.22;3.25;;;;;;;;;;5029169;28;20222;-87
2022/08/05 04:22:12;;;;;;;3.42;3.13;;;;;;;;;;5026862;28;20209;-87
2022/08/05 04:24:40;;;;;;;5.07;3.15;;;;;;;;;;5031415;28;20205;-88
2022/08/05 04:27:07;;;;;;;5.78;3.45;;;;;;;;;;5026459;28;20300;-87
2022/08/05 04:29:35;;;;;;;3.55;3.22;;;;;;;;;;5027993;28;20218;-87
2022/08/05 04:32:02;;;;;;;5.75;3.40;;;;;;;;;;5027633;28;20206;-86
2022/08/05 04:34:31;;;;;;;5.47;3.30;;;;;;;;;;5027319;28;20217;-87
2022/08/05 04:36:58;;;;;;;4.45;2.83;;;;;;;;;;5026238;28;20205;-87
2022/08/05 04:39:25;;;;;;;3.75;3.20;;;;;;;;;;5027161;28;20283;-87
2022/08/05 04:41:53;;;;;;;4.30;3.13;;;;;;;;;;5024093;28;20265;-86
2022/08/05 04:44:20;;;;;;;4.28;3.25;;;;;;;;;;5027585;28;20336;-87
2022/08/05 04:46:47;;;;;;;5.47;3.38;;;;;;;;;;5026565;28;20229;-87
2022/08/05 04:49:15;;;;;;;4.90;3.45;;;;;;;;;;5032485;28;20576;-87
2022/08/05 04:51:44;;;;;;;4.68;3.40;;;;;;;;;;5033267;28;20256;-87
2022/08/05 04:54:13;;;;;;;3.67;3.10;;;;;;;;;;5033658;28;20252;-87
2022/08/05 04:56:40;;;;;;;5.20;3.47;;;;;;;;;;5026879;28;20198;-87
2022/08/05 04:59:08;;;;;;;3.30;3.00;;;;;;;;;;5032169;28;20225;-87
2022/08/05 05:01:35;;;;;;;3.70;3.40;;;;;;;;;;5027362;28;20208;-87
2022/08/05 05:04:04;;;;;;;7.32;3.60;;;;;;;;;;5026460;28;20206;-88
2022/08/05 05:06:32;;;;;;;3.53;3.15;;;;;;;;;;5031778;28;20214;-88
2022/08/05 05:09:00;;;;;;;5.72;3.50;;;;;;;;;;5020167;28;20256;-87
2022/08/05 05:11:28;;;;;;;4.20;3.13;;;;;;;;;;5026934;28;20213;-87
2022/08/05 05:13:55;;;;;;;3.85;3.15;;;;;;;;;;5032771;28;20217;-88
2022/08/05 05:16:22;;;;;;;3.75;3.45;;;;;;;;;;5027188;28;20205;-88
2022/08/05 05:18:50;;;;;;;4.15;3.55;;;;;;;;;;5026458;28;20293;-87
2022/08/05 05:21:17;;;;;;;3.97;3.30;;;;;;;;;;5020785;28;20210;-87
2022/08/05 05:23:44;;;;;;;5.35;3.50;;;;;;;;;;5029873;28;20207;-87
2022/08/05 05:26:13;;;;;;;4.88;3.55;;;;;;;;;;5021461;28;20226;-87
2022/08/05 05:28:41;;;;;;;3.95;3.45;;;;;;;;;;5023522;28;20230;-88
2022/08/05 05:31:08;;;;;;;6.63;3.47;;;;;;;;;;5024965;28;20205;-87
2022/08/05 05:33:35;;;;;;;4.72;3.28;;;;;;;;;;5026589;28;20210;-87
2022/08/05 05:36:03;;;;;;;3.58;3.20;;;;;;;;;;5023839;28;20232;-87
2022/08/05 05:38:30;;;;;;;4.40;3.42;;;;;;;;;;5032284;28;20234;-86
2022/08/05 05:40:57;;;;;;;3.92;3.58;;;;;;;;;;5031742;28;20197;-88
2022/08/05 05:43:26;;;;;;;3.65;3.35;;;;;;;;;;5032587;28;20214;-87
2022/08/05 05:45:54;;;;;;;3.97;3.60;;;;;;;;;;5025737;28;20221;-87
2022/08/05 05:48:21;;;;;;;3.83;3.47;;;;;;;;;;5032325;28;20230;-86
2022/08/05 05:50:48;;;;;;;3.88;3.50;;;;;;;;;;5030908;28;20205;-87
2022/08/05 05:53:16;;;;;;;4.35;3.50;;;;;;;;;;5032785;28;20232;-88
2022/08/05 05:55:46;;;;;;;4.07;3.65;;;;;;;;;;5028584;28;20206;-88
2022/08/05 05:58:14;;;;;;;4.13;3.67;;;;;;;;;;5029653;28;20744;-86
2022/08/05 06:00:45;;;;;;;4.45;3.65;;;;;;;;;;5027962;28;20190;-88
2022/08/05 06:03:16;;;;;;;3.85;3.42;;;;;;;;;;5026314;28;20228;-88
2022/08/05 06:05:43;;;;;;;5.43;3.65;;;;;;;;;;5022306;28;20216;-88
2022/08/05 06:10:44;;;;;;;5.55;3.67;;;;;;;;;;5057018;28;20227;-84
2022/08/05 06:13:11;;;;;;;4.60;4.00;;;;;;;;;;5066520;28;20267;-84
2022/08/05 06:15:38;;;;;;;4.28;3.65;;;;;;;;;;5058188;28;20218;-83
2022/08/05 06:18:34;;;;;;;4.28;3.70;;;;;;;;;;5048493;28;20209;-90
2022/08/05 06:27:25;;;;;;;4.13;3.60;;;;;;;;;;5011787;28;20230;-86
2022/08/05 06:30:26;;;;;;;4.30;3.45;;;;;;;;;;5027126;28;20222;-86
2022/08/05 06:36:14;;;;;;;3.25;2.95;;;;;;;;;;4946555;28;20248;-86
2022/08/05 06:38:59;;;;;;;3.92;3.58;;;;;;;;;;5025963;28;20221;-87
2022/08/05 06:45:05;;;;;;;5.20;3.72;;;;;;;;;;4975722;28;20223;-87
2022/08/05 06:47:39;;;;;;;5.80;3.22;;;;;;;;;;4969680;28;20243;-86
2022/08/05 07:04:26;;;;;;;3.60;3.30;;;;;;;;;;5407702;22;20236;-89
2022/08/05 07:06:56;;;;;;;4.07;3.25;;;;;;;;;;5050461;28;20216;-88
2022/08/05 07:09:24;;;;;;;3.30;3.00;;;;;;;;;;5050886;28;20315;-88
2022/08/05 07:11:54;;;;;;;4.32;3.40;;;;;;;;;;5051031;28;20208;-88
2022/08/05 07:17:26;;;;;;;3.88;3.15;;;;;;;;;;4981490;28;20246;-87
2022/08/05 07:19:55;;;;;;;3.58;3.08;;;;;;;;;;4981122;28;20314;-87
2022/08/05 07:22:27;;;;;;;4.30;3.30;;;;;;;;;;5018884;28;20219;-86
2022/08/05 07:25:01;;;;;;;3.80;3.42;;;;;;;;;;5049196;28;20201;-86
2022/08/05 07:27:34;;;;;;;3.30;3.00;;;;;;;;;;5048518;28;20228;-86
2022/08/05 07:30:09;;;;;;;3.55;3.25;;;;;;;;;;5047201;28;20308;-86
2022/08/05 07:33:01;;;;;;;3.28;2.97;;;;;;;;;;5051741;28;20201;-87
2022/08/05 07:35:40;;;;;;;3.50;3.15;;;;;;;;;;5051964;28;20201;-88
2022/08/05 08:06:44;;;;;;;3.22;2.30;;;;;;;;;;5055099;28;20285;-89
2022/08/05 08:09:14;;;;;;;2.83;2.38;;;;;;;;;;5058335;22;20281;-88
2022/08/05 08:11:42;;;;;;;3.63;2.05;;;;;;;;;;5072106;28;20203;-88
2022/08/05 08:14:14;;;;;;;2.63;2.20;;;;;;;;;;5074727;28;20277;-88
2022/08/05 08:16:41;;;;;;;2.67;2.22;;;;;;;;;;5072818;28;20188;-88
2022/08/05 08:19:10;;;;;;;3.88;2.50;;;;;;;;;;5060250;28;20224;-88
2022/08/05 08:21:59;;;;;;;2.40;2.20;;;;;;;;;;5059635;28;20205;-91
2022/08/05 08:27:35;;;;;;;2.45;2.20;;;;;;;;;;5052120;28;20292;-89
2022/08/05 08:30:22;;;;;;;2.50;2.30;;;;;;;;;;5054499;28;20768;-88
2022/08/05 08:33:01;;;;;;;2.30;2.10;;;;;;;;;;5053555;28;20225;-88
2022/08/05 08:35:29;;;;;;;2.10;1.95;;;;;;;;;;5055318;28;20201;-90
2022/08/05 08:38:01;;;;;;;2.13;2.03;;;;;;;;;;5054239;28;20205;-90
2022/08/05 08:40:34;;;;;;;2.25;2.10;;;;;;;;;;5053815;28;20221;-90
2022/08/05 08:46:26;;;;;;;2.10;1.90;;;;;;;;;;5038562;28;20213;-89
2022/08/05 08:49:13;;;;;;;2.88;2.58;;;;;;;;;;5053070;28;20323;-88
2022/08/05 08:51:41;;;;;;;2.17;1.92;;;;;;;;;;5053201;28;20251;-88
2022/08/05 08:54:09;;;;;;;2.38;2.15;;;;;;;;;;5052729;28;20667;-87
2022/08/05 08:56:39;;;;;;;2.38;2.17;;;;;;;;;;5052928;28;20204;-87
2022/08/05 08:59:07;;;;;;;2.17;2.03;;;;;;;;;;5051805;28;20703;-87
2022/08/05 09:01:35;;;;;;;2.83;2.45;;;;;;;;;;5053060;28;20209;-86
2022/08/05 09:04:03;;;;;;;2.38;2.17;;;;;;;;;;5053236;28;20201;-86
2022/08/05 09:06:31;;;;;;;2.55;2.38;;;;;;;;;;5052728;28;20600;-86
2022/08/05 09:09:05;;;;;;;2.47;2.08;;;;;;;;;;5052560;28;20315;-86
2022/08/05 09:11:35;;;;;;;2.30;2.10;;;;;;;;;;5052388;28;20226;-86
2022/08/05 09:14:10;;;;;;;3.40;2.53;;;;;;;;;;5053100;28;20211;-87
2022/08/05 09:16:39;;;;;;;2.90;2.20;;;;;;;;;;5055513;28;20197;-85
2022/08/05 09:19:08;;;;;;;2.58;2.38;;;;;;;;;;5047300;28;20217;-86
2022/08/05 09:21:36;;;;;;;2.25;2.10;;;;;;;;;;5052679;28;20223;-88
2022/08/05 09:24:20;;;;;;;2.30;2.10;;;;;;;;;;5050975;28;20208;-88
2022/08/05 09:26:55;;;;;;;2.10;1.90;;;;;;;;;;5051798;28;20225;-86
2022/08/05 09:29:41;;;;;;;2.90;2.40;;;;;;;;;;5051342;28;20256;-86
2022/08/05 09:32:09;;;;;;;2.33;2.00;;;;;;;;;;5051850;28;20204;-85
2022/08/05 09:34:47;;;;;;;2.20;1.95;;;;;;;;;;5052763;28;20204;-86
2022/08/05 09:37:18;;;;;;;2.10;2.00;;;;;;;;;;5051081;28;20252;-85
2022/08/05 09:39:45;;;;;;;2.78;2.22;;;;;;;;;;5051621;28;20312;-86
2022/08/05 09:42:14;;;;;;;2.30;2.10;;;;;;;;;;5051816;28;20298;-86
2022/08/05 09:44:54;;;;;;;2.28;2.05;;;;;;;;;;5049927;28;20202;-86
2022/08/05 09:47:28;;;;;;;2.00;1.90;;;;;;;;;;5049779;28;20231;-86
2022/08/05 09:50:04;;;;;;;2.33;2.03;;;;;;;;;;5049990;28;20247;-85
2022/08/05 09:52:38;;;;;;;2.00;1.90;;;;;;;;;;5049594;28;20214;-88
2022/08/05 09:55:10;;;;;;;2.65;1.95;;;;;;;;;;5043021;28;20216;-88
2022/08/05 09:58:08;;;;;;;1.98;1.88;;;;;;;;;;5048991;28;20193;-88
2022/08/05 10:00:42;;;;;;;2.90;1.95;;;;;;;;;;5043312;28;20205;-89
2022/08/05 10:03:15;;;;;;;2.10;1.90;;;;;;;;;;5051751;28;20303;-88
2022/08/05 10:06:02;;;;;;;3.42;3.13;;;;;;;;;;5050003;28;20204;-88
2022/08/05 10:08:33;;;;;;;5.00;4.43;;;;;;;;;;5047691;28;20609;-88
2022/08/05 10:11:05;;;;;;;2.38;2.28;;;;;;;;;;5047695;28;20216;-88
2022/08/05 10:13:34;;;;;;;2.70;2.50;;;;;;;;;;5051439;28;20197;-90
2022/08/05 10:16:07;;;;;;;2.22;2.10;;;;;;;;;;5048895;28;20244;-90
2022/08/05 10:18:36;;;;;;;13.70;4.03;;;;;;;;;;5047129;28;20317;-86
2022/08/05 10:21:07;;;;;;;5.70;3.40;;;;;;;;;;5048316;28;20250;-86
2022/08/05 10:23:35;;;;;;;3.30;2.70;;;;;;;;;;5048235;28;20200;-86
2022/08/05 10:26:11;;;;;;;3.22;2.42;;;;;;;;;;5045720;28;20240;-86
2022/08/05 10:28:41;;;;;;;2.40;2.20;;;;;;;;;;5049850;28;20217;-86
2022/08/05 10:31:19;;;;;;;2.40;2.20;;;;;;;;;;5046469;28;20205;-86
2022/08/05 10:33:58;;;;;;;3.33;2.40;;;;;;;;;;5052258;28;20201;-88
2022/08/05 10:36:25;;;;;;;2.28;2.03;;;;;;;;;;5051586;28;20270;-87
2022/08/05 10:38:57;;;;;;;4.68;2.50;;;;;;;;;;5050626;28;20235;-86
2022/08/05 10:41:29;;;;;;;2.63;2.25;;;;;;;;;;5051778;28;20209;-86
2022/08/05 10:43:59;;;;;;;2.38;2.20;;;;;;;;;;5045108;28;20582;-86
2022/08/05 10:46:43;;;;;;;2.45;2.03;;;;;;;;;;5049437;28;20559;-87
2022/08/05 10:49:11;;;;;;;2.92;2.00;;;;;;;;;;5049928;28;20225;-87
2022/08/05 10:51:43;;;;;;;3.17;2.13;;;;;;;;;;5051094;28;20235;-87
2022/08/05 10:54:10;;;;;;;1.88;1.77;;;;;;;;;;5049679;28;20299;-87
2022/08/05 10:56:54;;;;;;;3.15;2.22;;;;;;;;;;5050645;28;20205;-87
2022/08/05 10:59:37;;;;;;;;;;;;;;;;;;;;;
2022/08/05 11:05:13;;;;;;;2.22;2.10;;;;;;;;;;5026759;28;20212;-87
2022/08/05 11:26:10;;;;;;;2.35;2.00;;;;;;;;;;5031173;28;20215;-89
2022/08/05 11:32:21;;;;;;;2.45;2.25;;;;;;;;;;4973189;28;20209;-89
2022/08/05 11:35:06;;;;;;;2.58;2.10;;;;;;;;;;4901414;28;20284;-89
2022/08/05 11:41:04;;;;;;;2.40;2.20;;;;;;;;;;4912182;29;20213;-90
2022/08/05 11:47:10;;;;;;;2.30;2.10;;;;;;;;;;4906494;29;20206;-91
2022/08/05 11:49:45;;;;;;;2.55;2.35;;;;;;;;;;4915157;28;20269;-91
2022/08/05 11:52:29;;;;;;;2.72;2.50;;;;;;;;;;4985801;28;20305;-91
2022/08/05 11:55:14;;;;;;;2.53;2.30;;;;;;;;;;4990012;28;20234;-92
2022/08/05 12:01:08;;;;;;;2.35;2.15;;;;;;;;;;4986049;28;20335;-92
2022/08/05 12:03:51;;;;;;;2.72;2.40;;;;;;;;;;4923384;29;20322;-91
2022/08/05 12:23:25;;;;;;;2.58;2.10;;;;;;;;;;5117587;22;20227;-87
2022/08/05 12:28:58;;;;;;;2.67;2.38;;;;;;;;;;5050017;28;20228;-87
2022/08/05 12:31:50;;;;;;;2.30;2.17;;;;;;;;;;5053547;28;20266;-88
2022/08/05 12:34:28;;;;;;;2.38;2.20;;;;;;;;;;5051190;28;20201;-88
2022/08/05 12:37:09;;;;;;;;;;;;;;;;;;;;;
2022/08/05 12:40:04;;;;;;;2.28;2.17;;;;;;;;;;5053755;28;20217;-86
2022/08/05 12:45:31;;;;;;;2.42;2.22;;;;;;;;;;5050867;28;20664;-88
2022/08/05 12:48:09;;;;;;;;;;;;;;;;;;;;;
2022/08/05 12:53:21;;;;;;;2.50;2.20;;;;;;;;;;5051617;28;20208;-87
2022/08/05 12:55:58;;;;;;;2.88;2.65;;;;;;;;;;5053223;28;20232;-87
2022/08/05 12:58:30;;;;;;;2.33;2.10;;;;;;;;;;5052540;28;20201;-88
2022/08/05 13:00:58;;;;;;;2.78;2.40;;;;;;;;;;5052186;28;20240;-87
2022/08/05 13:03:29;;;;;;;2.40;2.22;;;;;;;;;;5051688;28;20208;-87
2022/08/05 13:05:56;;;;;;;2.50;2.30;;;;;;;;;;5052728;28;20288;-87
2022/08/05 13:08:24;;;;;;;2.45;2.15;;;;;;;;;;5048926;28;20233;-87
2022/08/05 13:10:53;;;;;;;3.78;2.08;;;;;;;;;;5053785;28;20255;-89
2022/08/05 13:13:21;;;;;;;2.30;2.10;;;;;;;;;;5052872;28;20197;-89
2022/08/05 13:15:51;;;;;;;2.33;2.13;;;;;;;;;;5052517;28;20682;-90
2022/08/05 13:18:19;;;;;;;2.42;2.20;;;;;;;;;;5052676;28;20596;-89
2022/08/05 13:20:46;;;;;;;2.58;2.33;;;;;;;;;;5053882;28;20201;-91
2022/08/05 13:23:14;;;;;;;2.35;2.15;;;;;;;;;;5052877;28;20213;-90
2022/08/05 13:25:43;;;;;;;2.40;2.20;;;;;;;;;;5052347;28;20354;-89
2022/08/05 13:28:11;;;;;;;2.88;2.40;;;;;;;;;;5052815;28;20315;-88
2022/08/05 13:30:39;;;;;;;2.50;2.20;;;;;;;;;;5052833;28;20221;-88
2022/08/05 13:33:15;;;;;;;2.90;2.10;;;;;;;;;;5050168;28;20233;-88
2022/08/05 13:35:42;;;;;;;2.30;2.20;;;;;;;;;;5052393;28;20197;-89
2022/08/05 13:38:12;;;;;;;2.70;2.50;;;;;;;;;;5052023;28;20212;-88
2022/08/05 13:40:39;;;;;;;2.67;2.50;;;;;;;;;;5052364;28;20228;-88
2022/08/05 13:43:09;;;;;;;2.45;2.25;;;;;;;;;;5052528;28;20212;-88
2022/08/05 13:45:39;;;;;;;2.78;2.58;;;;;;;;;;5052141;28;20205;-88
2022/08/05 13:48:13;;;;;;;2.65;2.33;;;;;;;;;;5046757;28;20221;-88
2022/08/05 13:50:44;;;;;;;2.38;2.17;;;;;;;;;;5052564;28;20702;-88
2022/08/05 13:53:11;;;;;;;2.60;2.40;;;;;;;;;;5052528;28;20209;-88
2022/08/05 13:55:38;;;;;;;2.63;2.17;;;;;;;;;;5053548;28;20205;-87
2022/08/05 13:58:10;;;;;;;2.50;2.20;;;;;;;;;;5067938;28;20207;-87
2022/08/05 14:00:37;;;;;;;2.80;2.60;;;;;;;;;;5073168;28;20237;-87
2022/08/05 14:03:07;;;;;;;2.63;2.35;;;;;;;;;;5068316;28;20216;-87
2022/08/05 14:05:35;;;;;;;2.40;2.20;;;;;;;;;;5067860;28;20269;-87
2022/08/05 14:08:11;;;;;;;2.40;2.20;;;;;;;;;;5070616;28;20226;-87
2022/08/05 14:10:38;;;;;;;2.47;2.28;;;;;;;;;;5062638;28;20203;-88
2022/08/05 14:13:09;;;;;;;2.65;2.25;;;;;;;;;;5054497;28;20659;-88
2022/08/05 14:15:45;;;;;;;3.75;2.50;;;;;;;;;;5053499;28;20197;-87
2022/08/05 14:18:13;;;;;;;2.40;2.20;;;;;;;;;;5042271;28;20201;-87
2022/08/05 14:20:44;;;;;;;2.90;2.70;;;;;;;;;;5045751;28;20208;-87
2022/08/05 14:23:13;;;;;;;4.95;2.63;;;;;;;;;;5055474;28;20296;-86
2022/08/05 14:25:52;;;;;;;2.50;2.30;;;;;;;;;;5060644;28;20202;-86
2022/08/05 14:28:25;;;;;;;2.80;2.60;;;;;;;;;;5050110;28;20698;-88
2022/08/05 14:31:19;;;;;;;2.55;2.35;;;;;;;;;;5046941;28;20237;-88
2022/08/05 14:34:04;;;;;;;2.53;2.30;;;;;;;;;;5051668;28;20205;-87
2022/08/05 14:36:33;;;;;;;2.83;2.42;;;;;;;;;;5049652;28;20209;-87
2022/08/05 14:39:04;;;;;;;2.45;2.20;;;;;;;;;;5045935;28;20365;-88
2022/08/05 14:41:35;;;;;;;2.90;2.35;;;;;;;;;;5051862;28;20307;-87
2022/08/05 14:47:55;;;;;;;2.53;2.33;;;;;;;;;;5007895;28;20198;-88
2022/08/05 14:50:26;;;;;;;2.58;2.38;;;;;;;;;;5105907;22;20236;-88
2022/08/05 14:52:55;;;;;;;3.00;2.70;;;;;;;;;;5032568;28;20205;-88
2022/08/05 14:55:25;;;;;;;3.42;3.00;;;;;;;;;;5031809;28;20202;-88
2022/08/05 14:57:53;;;;;;;3.95;3.65;;;;;;;;;;5026838;28;20228;-87
2022/08/05 15:00:23;;;;;;;4.10;3.80;;;;;;;;;;5031370;28;20225;-88
2022/08/05 15:02:59;;;;;;;3.65;3.35;;;;;;;;;;5031352;28;20206;-87
2022/08/05 15:05:28;;;;;;;3.38;3.08;;;;;;;;;;5035026;28;20201;-87
2022/08/05 15:08:01;;;;;;;4.07;3.58;;;;;;;;;;5032865;28;20212;-87
2022/08/05 15:10:31;;;;;;;3.53;3.22;;;;;;;;;;5037048;28;20230;-88
2022/08/05 15:13:01;;;;;;;3.58;3.28;;;;;;;;;;5026899;28;20661;-87
2022/08/05 15:15:29;;;;;;;3.30;3.10;;;;;;;;;;5026677;28;20235;-87
2022/08/05 15:17:57;;;;;;;3.17;2.85;;;;;;;;;;5030990;28;20209;-87
2022/08/05 15:20:24;;;;;;;3.13;2.92;;;;;;;;;;5024457;28;20218;-87
2022/08/05 15:22:52;;;;;;;3.92;3.17;;;;;;;;;;5017910;28;20203;-87
2022/08/05 15:25:22;;;;;;;3.20;2.90;;;;;;;;;;5031071;28;20205;-87
2022/08/05 15:28:00;;;;;;;3.10;2.80;;;;;;;;;;5023649;28;20206;-87
2022/08/05 15:30:36;;;;;;;3.42;3.13;;;;;;;;;;5016379;28;20214;-87
2022/08/05 15:33:11;;;;;;;3.20;2.90;;;;;;;;;;5026309;28;20343;-87
2022/08/05 15:38:25;;;;;;;3.38;3.10;;;;;;;;;;5025646;28;20213;-87
2022/08/05 15:40:59;;;;;;;3.50;3.20;;;;;;;;;;5029611;28;20205;-88
2022/08/05 15:43:28;;;;;;;3.33;3.10;;;;;;;;;;5030511;28;20210;-87
2022/08/05 15:45:58;;;;;;;3.00;2.80;;;;;;;;;;5030389;28;20206;-86
2022/08/05 15:48:28;;;;;;;3.05;2.85;;;;;;;;;;5022028;28;20213;-86
2022/08/05 15:50:58;;;;;;;3.40;3.10;;;;;;;;;;5026660;28;20206;-87
2022/08/05 15:53:26;;;;;;;3.30;2.90;;;;;;;;;;5028403;28;20232;-87
2022/08/05 15:55:53;;;;;;;3.25;3.05;;;;;;;;;;5029335;28;20198;-86
2022/08/05 15:58:22;;;;;;;3.28;2.80;;;;;;;;;;5028503;28;20202;-87
2022/08/05 16:00:52;;;;;;;3.30;3.10;;;;;;;;;;5031919;28;20197;-86
2022/08/05 16:03:22;;;;;;;3.30;3.10;;;;;;;;;;5035285;28;20212;-86
2022/08/05 16:05:49;;;;;;;2.97;2.72;;;;;;;;;;5033859;28;20202;-87
2022/08/05 16:08:17;;;;;;;3.25;2.95;;;;;;;;;;5033773;28;20285;-86
2022/08/05 16:10:44;;;;;;;3.53;2.92;;;;;;;;;;5028594;28;20256;-87
2022/08/05 16:13:14;;;;;;;3.22;3.03;;;;;;;;;;5033582;28;20210;-87
2022/08/05 16:15:44;;;;;;;3.28;3.08;;;;;;;;;;5025956;28;20238;-88
2022/08/05 16:18:11;;;;;;;3.25;3.05;;;;;;;;;;5034124;28;20241;-87
2022/08/05 16:20:42;;;;;;;3.85;2.85;;;;;;;;;;5031349;28;20225;-87
2022/08/05 16:23:10;;;;;;;3.28;3.00;;;;;;;;;;5021866;28;20695;-86
2022/08/05 16:25:38;;;;;;;3.10;2.90;;;;;;;;;;5029309;28;20209;-87
2022/08/05 16:28:06;;;;;;;2.90;2.70;;;;;;;;;;5029952;28;20206;-89
2022/08/05 16:30:36;;;;;;;2.90;2.75;;;;;;;;;;5028783;28;20233;-88
2022/08/05 16:33:05;;;;;;;3.25;3.05;;;;;;;;;;5032550;28;20244;-88
2022/08/05 16:35:36;;;;;;;3.38;3.17;;;;;;;;;;5035825;28;20218;-89
2022/08/05 16:38:06;;;;;;;3.00;2.80;;;;;;;;;;5033524;28;20216;-88
2022/08/05 16:40:36;;;;;;;2.90;2.70;;;;;;;;;;5035257;28;20232;-89
2022/08/05 16:43:15;;;;;;;3.33;3.03;;;;;;;;;;5036998;28;20220;-88
2022/08/05 16:45:45;;;;;;;3.20;2.90;;;;;;;;;;5034234;28;20225;-88
2022/08/05 16:48:22;;;;;;;2.80;2.60;;;;;;;;;;5026163;28;20263;-88
2022/08/05 16:50:59;;;;;;;3.03;2.72;;;;;;;;;;5030497;28;20222;-88
2022/08/05 16:53:30;;;;;;;2.72;2.53;;;;;;;;;;5034453;28;20208;-88
2022/08/05 16:56:23;;;;;;;2.92;2.72;;;;;;;;;;5034112;28;20293;-88
2022/08/05 16:58:56;;;;;;;3.08;2.75;;;;;;;;;;5040240;28;20217;-88
2022/08/05 17:01:37;;;;;;;3.20;2.92;;;;;;;;;;5033003;28;20205;-88
2022/08/05 17:04:09;;;;;;;2.70;2.50;;;;;;;;;;5033857;28;20304;-88
2022/08/05 17:06:36;;;;;;;3.10;2.90;;;;;;;;;;5031792;28;20202;-87
2022/08/05 17:09:10;;;;;;;2.80;2.60;;;;;;;;;;5025541;28;20260;-88
2022/08/05 17:11:50;;;;;;;3.40;3.00;;;;;;;;;;5041298;28;20201;-88
2022/08/05 17:14:30;;;;;;;2.92;2.72;;;;;;;;;;5034006;28;20209;-89
2022/08/05 17:17:02;;;;;;;3.45;3.20;;;;;;;;;;5034377;28;20205;-88
2022/08/05 17:19:35;;;;;;;3.03;2.80;;;;;;;;;;5035574;28;20213;-88
2022/08/05 17:22:13;;;;;;;3.00;2.80;;;;;;;;;;5034983;28;20332;-88
2022/08/05 18:24:18;;;;;;;5.43;5.00;;;;;;;;;;5048332;28;20351;-87